createdAt,value
2023-01-13T00:00:24.044Z,105.03
2023-01-13T00:02:50.934Z,115.00
2023-01-13T00:05:17.879Z,106.10
2023-01-13T00:07:46.542Z,90.85
2023-01-13T00:10:13.374Z,84.07
2023-01-13T00:12:41.923Z,78.20
2023-01-13T00:15:10.060Z,82.68
2023-01-13T00:17:36.983Z,86.53
2023-01-13T00:20:04.081Z,87.40
2023-01-13T00:22:34.047Z,78.00
2023-01-13T00:25:01.667Z,59.00
2023-01-13T00:27:29.384Z,52.25
2023-01-13T00:29:56.274Z,52.50
2023-01-13T00:32:23.411Z,58.13
2023-01-13T00:34:50.355Z,60.05
2023-01-13T00:37:17.260Z,69.80
2023-01-13T00:39:44.333Z,71.28
2023-01-13T00:42:29.692Z,76.97
2023-01-13T00:44:56.722Z,82.05
2023-01-13T00:47:23.591Z,87.50
2023-01-13T00:49:50.545Z,86.82
2023-01-13T00:52:17.377Z,82.63
2023-01-13T00:54:44.277Z,84.85
2023-01-13T00:57:11.221Z,90.40
2023-01-13T00:59:38.030Z,88.00
2023-01-13T01:02:05.041Z,86.55
2023-01-13T01:04:31.991Z,86.55
2023-01-13T01:06:58.868Z,92.75
2023-01-13T01:09:32.733Z,94.95
2023-01-13T01:12:01.595Z,97.72
2023-01-13T01:14:28.512Z,98.78
2023-01-13T01:16:55.423Z,98.00
2023-01-13T01:19:22.231Z,102.95
2023-01-13T01:21:49.076Z,117.15
2023-01-13T01:24:16.834Z,116.50
2023-01-13T01:26:43.846Z,113.13
2023-01-13T01:29:13.913Z,118.65
2023-01-13T01:31:40.885Z,104.57
2023-01-13T01:34:07.723Z,102.13
2023-01-13T01:36:36.706Z,107.97
2023-01-13T01:39:04.466Z,106.10
2023-01-13T01:41:33.552Z,101.25
2023-01-13T01:44:08.188Z,102.68
2023-01-13T01:46:43.276Z,105.47
2023-01-13T01:49:32.705Z,103.32
2023-01-13T01:52:10.584Z,102.10
2023-01-13T01:54:40.442Z,98.55
2023-01-13T01:57:11.109Z,103.85
2023-01-13T01:59:39.085Z,102.05
2023-01-13T02:02:07.293Z,110.90
2023-01-13T02:04:39.318Z,108.15
2023-01-13T02:07:07.267Z,102.72
2023-01-13T02:09:36.627Z,98.93
2023-01-13T02:12:22.268Z,106.78
2023-01-13T02:14:49.132Z,103.40
2023-01-13T02:17:21.992Z,100.78
2023-01-13T02:20:16.950Z,100.25
2023-01-13T02:22:43.828Z,100.32
2023-01-13T02:25:10.584Z,103.53
2023-01-13T02:28:00.761Z,96.03
2023-01-13T02:31:13.226Z,99.57
2023-01-13T02:34:04.837Z,98.85
2023-01-13T02:36:47.964Z,98.47
2023-01-13T02:39:27.452Z,93.93
2023-01-13T02:42:40.561Z,86.82
2023-01-13T02:45:11.843Z,81.07
2023-01-13T02:47:41.497Z,90.88
2023-01-13T02:50:17.612Z,93.95
2023-01-13T02:53:08.749Z,99.75
2023-01-13T02:55:43.442Z,102.38
2023-01-13T02:58:15.735Z,98.82
2023-01-13T03:00:43.778Z,103.13
2023-01-13T03:03:10.715Z,101.65
2023-01-13T03:05:38.660Z,104.80
2023-01-13T03:08:19.666Z,88.28
2023-01-13T03:11:07.716Z,91.03
2023-01-13T03:13:45.545Z,92.07
2023-01-13T03:16:41.233Z,97.63
2023-01-13T03:19:08.089Z,102.20
2023-01-13T03:21:44.360Z,102.18
2023-01-13T03:24:39.155Z,100.57
2023-01-13T03:27:20.652Z,108.20
2023-01-13T03:29:59.344Z,103.95
2023-01-13T03:32:34.379Z,98.85
2023-01-13T03:35:16.880Z,100.97
2023-01-13T03:37:49.634Z,91.82
2023-01-13T03:40:24.767Z,86.22
2023-01-13T03:43:16.036Z,77.05
2023-01-13T03:45:44.928Z,77.35
2023-01-13T03:48:16.842Z,67.13
2023-01-13T03:50:54.182Z,68.07
2023-01-13T03:53:37.217Z,67.38
2023-01-13T03:56:22.894Z,67.22
2023-01-13T03:58:53.283Z,69.30
2023-01-13T04:01:35.483Z,73.90
2023-01-13T04:04:14.973Z,74.97
2023-01-13T04:07:02.341Z,75.70
2023-01-13T04:09:31.612Z,73.45
2023-01-13T04:12:22.543Z,73.78
2023-01-13T04:14:50.102Z,79.00
2023-01-13T04:17:17.467Z,75.78
2023-01-13T04:19:44.456Z,76.75
2023-01-13T04:22:11.337Z,80.63
2023-01-13T04:24:38.187Z,80.47
2023-01-13T04:27:05.075Z,83.63
2023-01-13T04:29:32.250Z,95.97
2023-01-13T04:31:59.055Z,107.78
2023-01-13T04:34:28.452Z,106.93
2023-01-13T04:36:55.447Z,104.88
2023-01-13T04:39:22.274Z,101.10
2023-01-13T04:41:58.296Z,100.65
2023-01-13T04:44:26.578Z,100.15
2023-01-13T04:46:53.747Z,89.75
2023-01-13T04:49:20.805Z,97.25
2023-01-13T04:51:47.658Z,101.30
2023-01-13T04:54:14.642Z,95.47
2023-01-13T04:56:42.555Z,97.47
2023-01-13T04:59:11.044Z,96.25
2023-01-13T05:01:38.623Z,103.30
2023-01-13T05:04:08.632Z,98.70
2023-01-13T05:06:35.510Z,104.68
2023-01-13T05:09:02.307Z,106.72
2023-01-13T05:11:47.882Z,105.50
2023-01-13T05:14:33.186Z,103.70
2023-01-13T05:17:03.758Z,116.40
2023-01-13T05:19:33.794Z,112.88
2023-01-13T05:22:20.231Z,105.88
2023-01-13T05:25:06.192Z,110.38
2023-01-13T05:27:33.437Z,97.30
2023-01-13T05:30:00.257Z,98.78
2023-01-13T05:32:30.417Z,103.15
2023-01-13T05:34:57.746Z,95.40
2023-01-13T05:37:25.989Z,102.75
2023-01-13T05:40:11.845Z,94.47
2023-01-13T05:42:57.631Z,96.45
2023-01-13T05:45:24.592Z,92.15
2023-01-13T05:47:51.620Z,88.93
2023-01-13T05:50:19.006Z,87.88
2023-01-13T05:52:45.917Z,89.63
2023-01-13T05:55:13.135Z,91.57
2023-01-13T05:57:39.951Z,101.70
2023-01-13T06:00:07.564Z,93.88
2023-01-13T06:02:40.381Z,93.55
2023-01-13T06:05:07.970Z,94.75
2023-01-13T06:07:34.806Z,95.38
2023-01-13T06:10:01.718Z,93.10
2023-01-13T06:12:28.579Z,92.95
2023-01-13T06:14:55.596Z,91.80
2023-01-13T06:17:22.451Z,92.25
2023-01-13T06:19:49.406Z,87.32
2023-01-13T06:22:26.207Z,85.72
2023-01-13T06:24:54.880Z,80.72
2023-01-13T06:27:23.202Z,80.95
2023-01-13T06:29:50.448Z,81.32
2023-01-13T06:32:29.752Z,84.72
2023-01-13T06:35:05.502Z,87.47
2023-01-13T06:37:34.152Z,77.88
2023-01-13T06:40:02.920Z,70.85
2023-01-13T06:42:51.788Z,64.75
2023-01-13T06:45:19.182Z,71.35
2023-01-13T06:47:46.015Z,64.18
2023-01-13T06:50:13.155Z,63.22
2023-01-13T06:52:40.196Z,65.88
2023-01-13T06:55:07.469Z,67.93
2023-01-13T06:57:34.320Z,71.80
2023-01-13T07:00:01.324Z,69.22
2023-01-13T07:02:28.516Z,61.97
2023-01-13T07:04:55.511Z,58.78
2023-01-13T07:07:22.320Z,63.15
2023-01-13T07:09:49.227Z,71.82
2023-01-13T07:12:16.099Z,66.18
2023-01-13T07:15:01.343Z,71.97
2023-01-13T07:17:28.313Z,66.03
2023-01-13T07:19:55.115Z,61.20
2023-01-13T07:22:22.072Z,62.80
2023-01-13T07:24:48.969Z,58.28
2023-01-13T07:27:15.972Z,55.33
2023-01-13T07:29:44.000Z,59.65
2023-01-13T07:32:10.908Z,61.40
2023-01-13T07:34:37.781Z,67.28
2023-01-13T07:37:04.701Z,62.95
2023-01-13T07:39:31.681Z,62.10
2023-01-13T07:42:17.392Z,60.65
2023-01-13T07:44:44.462Z,64.15
2023-01-13T07:47:11.431Z,61.08
2023-01-13T07:49:38.360Z,61.83
2023-01-13T07:52:05.481Z,65.88
2023-01-13T07:54:40.762Z,71.78
2023-01-13T07:57:08.629Z,73.95
2023-01-13T07:59:35.495Z,69.57
2023-01-13T08:02:02.636Z,57.17
2023-01-13T08:04:29.665Z,52.25
2023-01-13T08:06:56.666Z,51.15
2023-01-13T08:09:23.570Z,50.17
2023-01-13T08:12:13.753Z,52.92
2023-01-13T08:14:40.666Z,51.95
2023-01-13T08:17:09.222Z,56.47
2023-01-13T08:19:36.101Z,51.88
2023-01-13T08:22:02.929Z,54.45
2023-01-13T08:24:29.793Z,54.97
2023-01-13T08:26:56.674Z,56.25
2023-01-13T08:29:23.581Z,58.13
2023-01-13T08:31:50.360Z,56.88
2023-01-13T08:34:17.364Z,54.88
2023-01-13T08:36:44.643Z,53.17
2023-01-13T08:39:11.590Z,47.92
2023-01-13T08:41:57.159Z,47.55
2023-01-13T08:44:27.003Z,47.03
2023-01-13T08:46:54.645Z,50.05
2023-01-13T08:49:22.587Z,51.05
2023-01-13T08:51:49.719Z,53.25
2023-01-13T08:54:17.476Z,54.13
2023-01-13T08:56:45.707Z,60.70
2023-01-13T08:59:18.593Z,61.60
2023-01-13T09:01:45.934Z,59.30
2023-01-13T09:04:19.791Z,59.92
2023-01-13T09:06:48.025Z,60.55
2023-01-13T09:09:15.176Z,56.70
2023-01-13T09:12:05.921Z,50.95
2023-01-13T09:14:35.012Z,49.45
2023-01-13T09:17:01.958Z,49.53
2023-01-13T09:19:29.361Z,45.47
2023-01-13T09:21:57.261Z,43.42
2023-01-13T09:24:25.001Z,46.83
2023-01-13T09:26:52.435Z,47.53
2023-01-13T09:29:20.114Z,47.15
2023-01-13T09:31:47.468Z,48.58
2023-01-13T09:34:36.959Z,45.22
2023-01-13T09:37:05.939Z,45.85
2023-01-13T09:39:49.699Z,44.70
2023-01-13T09:42:51.701Z,48.20
2023-01-13T09:45:42.856Z,58.70
2023-01-13T09:48:15.515Z,58.95
2023-01-13T09:50:55.881Z,57.10
2023-01-13T09:53:32.729Z,55.42
2023-01-13T09:56:00.344Z,53.90
2023-01-13T09:58:27.565Z,54.22
2023-01-13T10:01:17.536Z,57.67
2023-01-13T10:03:44.661Z,54.25
2023-01-13T10:06:15.242Z,62.42
2023-01-13T10:08:44.137Z,66.25
2023-01-13T10:11:43.854Z,69.75
2023-01-13T10:14:32.344Z,65.32
2023-01-13T10:17:18.281Z,62.33
2023-01-13T10:19:50.941Z,58.88
2023-01-13T10:22:42.414Z,56.97
2023-01-13T10:25:25.437Z,56.00
2023-01-13T10:27:58.628Z,57.63
2023-01-13T10:30:40.349Z,55.63
2023-01-13T10:33:15.032Z,57.67
2023-01-13T10:36:00.123Z,54.80
2023-01-13T10:38:35.952Z,54.40
2023-01-13T10:41:21.166Z,52.20
2023-01-13T10:44:06.358Z,49.80
2023-01-13T10:46:50.231Z,51.60
2023-01-13T10:49:36.535Z,49.17
2023-01-13T10:52:24.003Z,45.97
2023-01-13T10:54:55.153Z,44.63
2023-01-13T10:57:27.724Z,48.47
2023-01-13T10:59:55.719Z,46.97
2023-01-13T11:02:29.729Z,45.85
2023-01-13T11:04:58.181Z,43.70
2023-01-13T11:07:40.978Z,43.05
2023-01-13T11:10:10.636Z,40.22
2023-01-13T11:13:14.314Z,41.60
2023-01-13T11:15:57.816Z,38.20
2023-01-13T11:18:37.907Z,34.45
2023-01-13T11:21:12.117Z,28.30
2023-01-13T11:23:49.185Z,29.13
2023-01-13T11:26:25.511Z,31.65
2023-01-13T11:29:08.438Z,32.15
2023-01-13T11:31:47.637Z,29.65
2023-01-13T11:34:28.760Z,27.02
2023-01-13T11:36:59.311Z,27.38
2023-01-13T11:39:44.296Z,26.98
2023-01-13T11:42:24.167Z,26.88
2023-01-13T11:44:59.358Z,26.23
2023-01-13T11:47:27.427Z,24.85
2023-01-13T11:49:54.893Z,25.35
2023-01-13T11:52:24.730Z,26.17
2023-01-13T11:54:59.304Z,26.15
2023-01-13T11:57:50.645Z,26.20
2023-01-13T12:00:56.357Z,24.75
2023-01-13T12:03:43.636Z,26.77
2023-01-13T12:06:33.587Z,24.65
2023-01-13T12:09:37.341Z,24.95
2023-01-13T12:12:19.947Z,25.65
2023-01-13T12:15:03.145Z,25.52
2023-01-13T12:17:54.861Z,26.20
2023-01-13T12:20:24.680Z,27.10
2023-01-13T12:22:55.179Z,26.20
2023-01-13T12:25:34.494Z,30.40
2023-01-13T12:28:05.039Z,31.48
2023-01-13T12:30:37.776Z,35.05
2023-01-13T12:33:27.487Z,35.25
2023-01-13T12:36:02.654Z,34.38
2023-01-13T12:38:37.437Z,33.40
2023-01-13T12:41:33.624Z,33.97
2023-01-13T12:44:20.443Z,32.15
2023-01-13T12:46:53.431Z,31.05
2023-01-13T12:49:24.627Z,32.90
2023-01-13T12:51:57.320Z,35.00
2023-01-13T12:54:43.559Z,33.85
2023-01-13T12:57:25.012Z,33.65
2023-01-13T13:00:16.728Z,35.50
2023-01-13T13:03:03.796Z,34.88
2023-01-13T13:05:39.874Z,33.35
2023-01-13T13:08:07.107Z,34.25
2023-01-13T13:10:40.774Z,32.00
2023-01-13T13:13:20.664Z,30.55
2023-01-13T13:15:51.739Z,32.08
2023-01-13T13:18:19.679Z,33.38
2023-01-13T13:21:09.267Z,31.15
2023-01-13T13:23:48.467Z,32.28
2023-01-13T13:26:20.244Z,32.57
2023-01-13T13:29:01.929Z,31.13
2023-01-13T13:32:08.734Z,33.13
2023-01-13T13:34:43.553Z,31.70
2023-01-13T13:37:25.173Z,29.90
2023-01-13T13:40:11.334Z,29.77
2023-01-13T13:43:10.749Z,31.08
2023-01-13T13:45:56.475Z,31.00
2023-01-13T13:48:34.411Z,30.60
2023-01-13T13:51:05.958Z,31.90
2023-01-13T13:53:41.839Z,31.10
2023-01-13T13:56:19.175Z,31.73
2023-01-13T13:58:48.369Z,32.97
2023-01-13T14:01:37.874Z,32.03
2023-01-13T14:04:14.653Z,28.67
2023-01-13T14:07:01.839Z,29.92
2023-01-13T14:09:39.092Z,38.13
2023-01-13T14:12:15.237Z,31.80
2023-01-13T14:14:46.816Z,31.65
2023-01-13T14:17:27.453Z,31.88
2023-01-13T14:20:08.517Z,32.08
2023-01-13T14:22:35.799Z,35.83
2023-01-13T14:25:02.748Z,34.15
2023-01-13T14:27:30.600Z,35.15
2023-01-13T14:30:00.385Z,34.60
2023-01-13T14:32:35.447Z,33.90
2023-01-13T14:35:06.384Z,33.40
2023-01-13T14:37:38.995Z,34.65
2023-01-13T14:40:06.897Z,33.10
2023-01-13T14:42:35.693Z,33.42
2023-01-13T14:45:03.507Z,33.05
2023-01-13T14:47:34.147Z,33.88
2023-01-13T14:50:34.038Z,36.00
2023-01-13T14:53:01.752Z,35.28
2023-01-13T14:55:40.529Z,33.80
2023-01-13T14:58:22.472Z,33.25
2023-01-13T15:00:51.130Z,30.02
2023-01-13T15:03:20.963Z,28.13
2023-01-13T15:05:52.542Z,25.98
2023-01-13T15:08:26.173Z,24.17
2023-01-13T15:11:00.086Z,22.15
2023-01-13T15:13:35.917Z,21.05
2023-01-13T15:16:13.934Z,23.45
2023-01-13T15:18:41.414Z,22.38
2023-01-13T15:21:09.666Z,22.75
2023-01-13T15:23:38.608Z,28.83
2023-01-13T15:26:15.255Z,27.92
2023-01-13T15:28:42.200Z,34.88
2023-01-13T15:31:09.687Z,33.00
2023-01-13T15:33:36.531Z,33.28
2023-01-13T15:36:03.522Z,32.08
2023-01-13T15:38:30.488Z,31.23
2023-01-13T15:40:57.375Z,31.70
2023-01-13T15:43:43.140Z,30.08
2023-01-13T15:46:38.123Z,32.22
2023-01-13T15:49:34.410Z,30.70
2023-01-13T15:52:21.614Z,31.02
2023-01-13T15:54:49.188Z,30.08
2023-01-13T15:57:24.977Z,29.77
2023-01-13T15:59:55.425Z,30.50
2023-01-13T16:02:23.669Z,30.73
2023-01-13T16:04:53.910Z,33.15
2023-01-13T16:07:22.653Z,34.28
2023-01-13T16:09:49.735Z,36.63
2023-01-13T16:15:22.591Z,36.13
2023-01-13T16:17:58.071Z,36.00
2023-01-13T16:20:24.943Z,35.42
2023-01-13T16:22:52.859Z,33.63
2023-01-13T16:25:25.429Z,35.67
2023-01-13T16:27:53.016Z,35.75
2023-01-13T16:30:35.109Z,36.83
2023-01-13T16:33:02.849Z,41.53
2023-01-13T16:35:32.078Z,41.05
2023-01-13T16:38:00.037Z,41.85
2023-01-13T16:40:33.699Z,48.40
2023-01-13T16:43:03.480Z,43.78
2023-01-13T16:45:31.675Z,41.50
2023-01-13T16:47:58.533Z,38.33
2023-01-13T16:50:36.359Z,39.53
2023-01-13T16:53:04.768Z,38.42
2023-01-13T16:55:31.738Z,34.85
2023-01-13T16:57:58.788Z,33.42
2023-01-13T17:00:25.685Z,34.70
2023-01-13T17:02:52.535Z,34.38
2023-01-13T17:05:19.676Z,36.33
2023-01-13T17:07:47.868Z,40.53
2023-01-13T17:10:23.319Z,39.58
2023-01-13T17:12:50.740Z,36.90
2023-01-13T17:15:19.320Z,35.45
2023-01-13T17:17:48.902Z,36.95
2023-01-13T17:20:16.457Z,35.50
2023-01-13T17:22:45.606Z,34.63
2023-01-13T17:25:14.882Z,29.58
2023-01-13T17:27:42.348Z,28.65
2023-01-13T17:30:11.465Z,28.63
2023-01-13T17:32:38.534Z,27.83
2023-01-13T17:35:07.840Z,28.52
2023-01-13T17:37:35.273Z,29.57
2023-01-13T17:40:02.276Z,28.67
2023-01-13T17:42:29.799Z,27.98
2023-01-13T17:44:56.694Z,28.40
2023-01-13T17:47:24.725Z,27.55
2023-01-13T17:49:51.600Z,27.48
2023-01-13T17:52:18.520Z,27.77
2023-01-13T17:54:45.523Z,30.52
2023-01-13T17:57:12.546Z,30.52
2023-01-13T17:59:41.511Z,30.88
2023-01-13T18:02:11.941Z,28.70
2023-01-13T18:04:38.866Z,30.20
2023-01-13T18:07:06.437Z,28.00
2023-01-13T18:09:33.550Z,26.67
2023-01-13T18:12:00.831Z,25.30
2023-01-13T18:14:28.308Z,26.30
2023-01-13T18:16:55.407Z,26.77
2023-01-13T18:19:40.851Z,25.80
2023-01-13T18:22:31.201Z,24.33
2023-01-13T18:25:16.728Z,23.33
2023-01-13T18:27:43.675Z,24.30
2023-01-13T18:30:12.098Z,26.08
2023-01-13T18:32:39.096Z,26.63
2023-01-13T18:35:10.571Z,26.65
2023-01-13T18:37:40.540Z,27.60
2023-01-13T18:40:09.821Z,27.15
2023-01-13T18:42:54.728Z,28.58
2023-01-13T18:45:30.795Z,29.98
2023-01-13T18:48:00.871Z,31.65
2023-01-13T18:50:28.423Z,30.67
2023-01-13T18:52:56.112Z,28.55
2023-01-13T18:55:24.015Z,31.60
2023-01-13T18:57:51.520Z,32.72
2023-01-13T19:00:20.177Z,32.75
2023-01-13T19:02:48.019Z,33.30
2023-01-13T19:05:15.055Z,31.50
2023-01-13T19:07:43.566Z,31.42
2023-01-13T19:10:13.051Z,31.67
2023-01-13T19:12:39.978Z,30.35
2023-01-13T19:15:07.633Z,31.90
2023-01-13T19:17:35.531Z,31.17
2023-01-13T19:20:04.881Z,32.00
2023-01-13T19:22:34.294Z,33.73
2023-01-13T19:25:02.360Z,33.22
2023-01-13T19:27:30.388Z,33.15
2023-01-13T19:30:00.635Z,35.13
2023-01-13T19:32:28.430Z,38.95
2023-01-13T19:34:59.362Z,40.80
2023-01-13T19:37:31.034Z,34.65
2023-01-13T19:40:00.696Z,38.25
2023-01-13T19:42:46.513Z,53.47
2023-01-13T19:45:31.487Z,60.97
2023-01-13T19:48:02.027Z,33.10
2023-01-13T19:50:29.278Z,31.50
2023-01-13T19:52:56.139Z,31.40
2023-01-13T19:55:23.453Z,30.15
2023-01-13T19:57:50.585Z,27.10
2023-01-13T20:00:20.642Z,28.15
2023-01-13T20:05:21.499Z,27.42
2023-01-13T20:07:50.103Z,27.73
2023-01-13T20:10:19.160Z,27.40
2023-01-13T20:12:46.079Z,27.27
2023-01-13T20:15:13.086Z,25.95
2023-01-13T20:17:41.591Z,24.38
2023-01-13T20:20:09.947Z,31.40
2023-01-13T20:22:38.520Z,25.85
2023-01-13T20:25:05.794Z,24.15
2023-01-13T20:27:32.720Z,27.92
2023-01-13T20:29:59.635Z,26.27
2023-01-13T20:32:26.539Z,24.55
2023-01-13T20:34:53.578Z,25.30
2023-01-13T20:37:20.533Z,25.63
2023-01-13T20:39:48.241Z,25.50
2023-01-13T20:42:30.374Z,25.25
2023-01-13T20:45:00.056Z,28.65
2023-01-13T20:47:28.435Z,27.38
2023-01-13T20:49:55.346Z,29.30
2023-01-13T20:52:22.379Z,28.50
2023-01-13T20:54:49.310Z,27.42
2023-01-13T20:57:16.245Z,28.88
2023-01-13T20:59:43.149Z,29.02
2023-01-13T21:02:15.052Z,27.63
2023-01-13T21:04:42.325Z,31.13
2023-01-13T21:07:10.138Z,27.52
2023-01-13T21:09:37.248Z,27.17
2023-01-13T21:12:23.329Z,32.50
2023-01-13T21:15:08.888Z,31.33
2023-01-13T21:17:55.364Z,29.85
2023-01-13T21:20:22.521Z,29.25
2023-01-13T21:22:49.665Z,36.47
2023-01-13T21:25:18.316Z,41.20
2023-01-13T21:27:45.208Z,47.10
2023-01-13T21:30:15.022Z,52.70
2023-01-13T21:32:43.632Z,51.47
2023-01-13T21:35:11.097Z,48.92
2023-01-13T21:37:38.939Z,42.15
2023-01-13T21:40:30.211Z,39.67
2023-01-13T21:43:17.814Z,41.53
2023-01-13T21:46:05.553Z,39.53
2023-01-13T21:48:32.683Z,41.13
2023-01-13T21:51:01.401Z,43.10
2023-01-13T21:53:28.275Z,44.55
2023-01-13T21:55:55.116Z,43.00
2023-01-13T21:58:22.036Z,43.00
2023-01-13T22:00:50.008Z,43.22
2023-01-13T22:03:18.832Z,42.90
2023-01-13T22:05:46.409Z,43.90
2023-01-13T22:11:02.802Z,43.13
2023-01-13T22:13:48.384Z,43.47
2023-01-13T22:16:15.645Z,46.08
2023-01-13T22:18:42.588Z,43.90
2023-01-13T22:21:09.711Z,42.88
2023-01-13T22:23:36.828Z,44.30
2023-01-13T22:26:05.155Z,44.35
2023-01-13T22:28:40.111Z,43.03
2023-01-13T22:31:18.447Z,41.35
2023-01-13T22:33:48.515Z,37.65
2023-01-13T22:36:16.463Z,35.95
2023-01-13T22:38:43.266Z,37.28
2023-01-13T22:41:10.878Z,38.63
2023-01-13T22:43:38.571Z,37.47
2023-01-13T22:46:11.565Z,38.90
2023-01-13T22:48:39.603Z,36.63
2023-01-13T22:51:17.073Z,37.58
2023-01-13T22:53:44.071Z,36.05
2023-01-13T22:56:18.031Z,36.38
2023-01-13T22:58:45.081Z,36.20
2023-01-13T23:01:17.362Z,36.90
2023-01-13T23:03:48.385Z,34.28
2023-01-13T23:06:18.315Z,34.00
2023-01-13T23:08:46.244Z,35.30
2023-01-13T23:11:16.716Z,33.58
2023-01-13T23:13:44.130Z,33.60
2023-01-13T23:16:14.801Z,34.53
2023-01-13T23:18:51.006Z,32.63
2023-01-13T23:21:21.100Z,36.33
2023-01-13T23:23:48.419Z,38.53
2023-01-13T23:26:16.311Z,39.42
2023-01-13T23:28:43.525Z,43.47
2023-01-13T23:31:15.896Z,44.03
2023-01-13T23:33:44.065Z,44.13
2023-01-13T23:36:14.721Z,44.38
2023-01-13T23:38:42.339Z,45.33
2023-01-13T23:41:12.219Z,45.42
2023-01-13T23:43:39.261Z,43.17
2023-01-13T23:46:11.684Z,42.22
2023-01-13T23:48:38.747Z,43.15
2023-01-13T23:51:08.707Z,42.85
2023-01-13T23:53:40.437Z,43.33
2023-01-13T23:56:11.369Z,44.95
2023-01-13T23:58:38.221Z,42.60
